createdAt,value
2023-04-05T00:00:22.088Z,101116.25
2023-04-05T00:05:29.651Z,101120.84
2023-04-05T00:10:31.523Z,101116.00
2023-04-05T00:15:33.176Z,101106.06
2023-04-05T00:20:37.646Z,101110.28
2023-04-05T00:25:38.986Z,101111.72
2023-04-05T00:30:40.764Z,101118.63
2023-04-05T00:35:42.293Z,101107.84
2023-04-05T00:40:43.922Z,101108.69
2023-04-05T00:45:45.967Z,101106.84
2023-04-05T00:50:49.920Z,101096.94
2023-04-05T00:55:54.441Z,101098.50
2023-04-05T01:01:13.710Z,101092.78
2023-04-05T01:06:37.688Z,101090.19
2023-04-05T01:11:40.582Z,101084.94
2023-04-05T01:16:41.940Z,101086.00
2023-04-05T01:22:21.994Z,101079.13
2023-04-05T01:27:41.624Z,101069.50
2023-04-05T01:33:00.450Z,101072.97
2023-04-05T01:38:04.499Z,101064.31
2023-04-05T01:43:13.808Z,101058.94
2023-04-05T01:48:16.002Z,101063.88
2023-04-05T01:53:17.569Z,101060.94
2023-04-05T01:58:18.989Z,101064.97
2023-04-05T02:03:21.313Z,101064.63
2023-04-05T02:08:22.741Z,101064.88
2023-04-05T02:13:25.737Z,101048.53
2023-04-05T02:18:32.880Z,101055.97
2023-04-05T02:23:35.416Z,101063.22
2023-04-05T02:28:37.054Z,101054.84
2023-04-05T02:33:39.212Z,101051.56
2023-04-05T02:38:40.974Z,101053.38
2023-04-05T02:43:42.331Z,101060.28
2023-04-05T02:48:45.462Z,101062.19
2023-04-05T02:53:48.060Z,101054.69
2023-04-05T02:58:49.511Z,101053.38
2023-04-05T03:03:51.403Z,101054.25
2023-04-05T03:08:53.738Z,101038.50
2023-04-05T03:13:55.116Z,101041.28
2023-04-05T03:18:57.079Z,101037.78
2023-04-05T03:23:58.430Z,101037.88
2023-04-05T03:28:59.869Z,101043.53
2023-04-05T03:34:01.364Z,101039.38
2023-04-05T03:39:02.725Z,101043.31
2023-04-05T03:44:04.644Z,101033.13
2023-04-05T03:49:07.253Z,101038.63
2023-04-05T03:54:08.628Z,101036.22
2023-04-05T03:59:10.203Z,101025.81
2023-04-05T04:04:13.512Z,101021.22
2023-04-05T04:09:14.870Z,101018.06
2023-04-05T04:14:16.353Z,101016.34
2023-04-05T04:19:18.561Z,101020.81
2023-04-05T04:24:20.151Z,101023.16
2023-04-05T04:29:30.925Z,101033.78
2023-04-05T04:34:34.623Z,101029.41
2023-04-05T04:39:39.643Z,101027.06
2023-04-05T04:44:42.529Z,101026.75
2023-04-05T04:49:43.946Z,101019.75
2023-04-05T04:54:47.228Z,101013.59
2023-04-05T04:59:48.614Z,101016.06
2023-04-05T05:04:50.220Z,101024.53
2023-04-05T05:09:52.412Z,101017.41
2023-04-05T05:14:53.791Z,101033.22
2023-04-05T05:19:56.415Z,101028.88
2023-04-05T05:24:57.853Z,101026.84
2023-04-05T05:29:59.630Z,101033.44
2023-04-05T05:35:00.969Z,101030.25
2023-04-05T05:40:03.297Z,101029.63
2023-04-05T05:45:05.883Z,101036.94
2023-04-05T05:50:09.103Z,101033.66
2023-04-05T05:55:10.761Z,101040.88
2023-04-05T06:00:12.749Z,101043.69
2023-04-05T06:05:14.212Z,101043.09
2023-04-05T06:10:15.599Z,101049.09
2023-04-05T06:15:17.078Z,101036.94
2023-04-05T06:20:18.492Z,101037.63
2023-04-05T06:25:19.903Z,101041.78
2023-04-05T06:30:21.371Z,101039.72
2023-04-05T06:35:23.637Z,101031.75
2023-04-05T06:40:25.213Z,101025.91
2023-04-05T06:45:26.547Z,101028.38
2023-04-05T06:50:27.916Z,101032.63
2023-04-05T06:55:29.776Z,101031.94
2023-04-05T07:00:31.450Z,101027.81
2023-04-05T07:05:33.025Z,101027.00
2023-04-05T07:10:34.506Z,101021.69
2023-04-05T07:15:35.973Z,101013.78
2023-04-05T07:20:37.896Z,101012.88
2023-04-05T07:25:42.090Z,101014.16
2023-04-05T07:30:43.850Z,101010.34
2023-04-05T07:35:45.341Z,101012.59
2023-04-05T07:40:50.953Z,101015.03
2023-04-05T07:46:00.611Z,101012.50
2023-04-05T07:51:09.881Z,100994.59
2023-04-05T07:56:12.374Z,100997.38
2023-04-05T08:01:13.757Z,101003.16
2023-04-05T08:06:19.331Z,101000.28
2023-04-05T08:11:21.566Z,101001.56
2023-04-05T08:16:23.020Z,100996.84
2023-04-05T08:21:24.453Z,100989.56
2023-04-05T08:26:25.871Z,100977.75
2023-04-05T08:31:27.336Z,100980.16
2023-04-05T08:36:28.906Z,100974.78
2023-04-05T08:41:40.858Z,100982.25
2023-04-05T08:46:44.014Z,100985.28
2023-04-05T08:51:45.408Z,100978.50
2023-04-05T08:56:49.154Z,100974.25
2023-04-05T09:01:51.544Z,100966.59
2023-04-05T09:06:57.446Z,100965.22
2023-04-05T09:11:59.406Z,100967.75
2023-04-05T09:17:04.383Z,100958.56
2023-04-05T09:22:08.614Z,100960.16
2023-04-05T09:27:11.795Z,100960.13
2023-04-05T09:32:15.293Z,100956.75
2023-04-05T09:37:21.758Z,100960.81
2023-04-05T09:42:23.459Z,100958.28
2023-04-05T09:47:31.001Z,100960.63
2023-04-05T09:52:33.098Z,100951.31
2023-04-05T09:57:37.001Z,100943.59
2023-04-05T10:02:39.922Z,100944.88
2023-04-05T10:07:45.236Z,100941.69
2023-04-05T10:12:48.007Z,100940.84
2023-04-05T10:17:53.242Z,100945.63
2023-04-05T10:23:13.235Z,100937.19
2023-04-05T10:28:35.114Z,100928.28
2023-04-05T10:33:47.561Z,100930.03
2023-04-05T10:39:00.131Z,100921.50
2023-04-05T10:44:09.199Z,100905.31
2023-04-05T10:49:29.185Z,100904.91
2023-04-05T10:54:36.559Z,100897.66
2023-04-05T10:59:43.779Z,100898.56
2023-04-05T11:04:45.523Z,100889.38
2023-04-05T11:10:04.303Z,100888.84
2023-04-05T11:15:30.080Z,100882.19
2023-04-05T11:20:41.479Z,100881.41
2023-04-05T11:25:50.481Z,100871.97
2023-04-05T11:30:56.463Z,100876.25
2023-04-05T11:36:02.896Z,100866.47
2023-04-05T11:41:12.445Z,100861.72
2023-04-05T11:46:15.507Z,100853.75
2023-04-05T11:51:20.476Z,100845.81
2023-04-05T11:56:22.199Z,100848.34
2023-04-05T12:01:23.526Z,100843.13
2023-04-05T12:06:26.118Z,100836.88
2023-04-05T12:11:30.915Z,100829.53
2023-04-05T12:16:32.343Z,100824.69
2023-04-05T12:21:33.797Z,100821.03
2023-04-05T12:26:35.758Z,100814.66
2023-04-05T12:31:50.318Z,100811.84
2023-04-05T12:36:52.294Z,100806.75
2023-04-05T12:41:58.924Z,100794.94
2023-04-05T12:47:09.058Z,100787.03
2023-04-05T12:52:11.503Z,100791.19
2023-04-05T12:57:14.205Z,100779.28
2023-04-05T13:02:15.614Z,100774.69
2023-04-05T13:07:17.040Z,100772.81
2023-04-05T13:12:18.454Z,100765.06
2023-04-05T13:17:19.880Z,100761.72
2023-04-05T13:22:21.440Z,100755.91
2023-04-05T13:27:22.910Z,100766.56
2023-04-05T13:32:24.432Z,100749.16
2023-04-05T13:37:26.394Z,100747.53
2023-04-05T13:42:27.924Z,100742.06
2023-04-05T13:47:29.284Z,100733.00
2023-04-05T13:52:30.672Z,100724.38
2023-04-05T13:57:32.367Z,100724.13
2023-04-05T14:02:34.034Z,100714.97
2023-04-05T14:07:35.777Z,100709.31
2023-04-05T14:12:37.160Z,100710.22
2023-04-05T14:17:38.623Z,100704.06
2023-04-05T14:22:40.248Z,100696.88
2023-04-05T14:27:42.392Z,100693.13
2023-04-05T14:32:45.171Z,100681.88
2023-04-05T14:37:46.525Z,100675.91
2023-04-05T14:42:50.166Z,100668.34
2023-04-05T14:47:51.813Z,100659.63
2023-04-05T14:52:53.698Z,100665.16
2023-04-05T14:57:55.220Z,100654.88
2023-04-05T15:02:56.658Z,100652.63
2023-04-05T15:07:58.039Z,100658.19
2023-04-05T15:12:59.388Z,100652.00
2023-04-05T15:18:01.340Z,100655.72
2023-04-05T15:23:02.875Z,100660.75
2023-04-05T15:28:06.731Z,100651.19
2023-04-05T15:33:08.455Z,100648.25
2023-04-05T15:38:09.844Z,100648.09
2023-04-05T15:43:11.296Z,100647.53
2023-04-05T15:48:15.717Z,100642.13
2023-04-05T15:53:17.235Z,100640.13
2023-04-05T15:58:18.575Z,100656.91
2023-04-05T16:03:19.989Z,100655.22
2023-04-05T16:08:21.360Z,100640.88
2023-04-05T16:13:23.232Z,100638.69
2023-04-05T16:18:25.917Z,100642.78
2023-04-05T16:23:27.330Z,100630.69
2023-04-05T16:28:28.787Z,100626.53
2023-04-05T16:33:30.322Z,100626.50
2023-04-05T16:38:31.682Z,100630.06
2023-04-05T16:43:33.053Z,100630.72
2023-04-05T16:48:34.493Z,100624.22
2023-04-05T16:53:35.881Z,100622.78
2023-04-05T16:58:37.251Z,100627.88
2023-04-05T17:03:38.708Z,100621.81
2023-04-05T17:08:40.293Z,100613.53
2023-04-05T17:13:41.966Z,100616.97
2023-04-05T17:18:43.329Z,100628.44
2023-04-05T17:23:44.785Z,100637.78
2023-04-05T17:28:46.135Z,100624.75
2023-04-05T17:33:48.797Z,100627.28
2023-04-05T17:38:50.656Z,100626.78
2023-04-05T17:43:52.016Z,100632.06
2023-04-05T17:48:54.023Z,100635.25
2023-04-05T17:53:57.373Z,100631.00
2023-04-05T17:58:58.746Z,100631.44
2023-04-05T18:04:01.053Z,100634.13
2023-04-05T18:09:03.440Z,100642.69
2023-04-05T18:14:05.448Z,100633.16
2023-04-05T18:19:07.418Z,100637.25
2023-04-05T18:24:10.560Z,100643.69
2023-04-05T18:29:12.280Z,100648.91
2023-04-05T18:34:13.733Z,100646.34
2023-04-05T18:39:16.215Z,100650.81
2023-04-05T18:44:17.551Z,100653.59
2023-04-05T18:49:19.047Z,100659.16
2023-04-05T18:54:20.850Z,100672.47
2023-04-05T18:59:22.772Z,100670.09
2023-04-05T19:04:24.182Z,100674.38
2023-04-05T19:09:26.503Z,100680.88
2023-04-05T19:14:27.853Z,100681.66
2023-04-05T19:19:29.241Z,100691.53
2023-04-05T19:24:30.769Z,100687.97
2023-04-05T19:29:34.473Z,100696.13
2023-04-05T19:34:37.578Z,100696.59
2023-04-05T19:39:39.449Z,100696.25
2023-04-05T19:44:46.532Z,100701.06
2023-04-05T19:49:51.920Z,100699.16
2023-04-05T19:54:53.290Z,100697.81
2023-04-05T19:59:54.687Z,100695.56
2023-04-05T20:04:56.151Z,100699.13
2023-04-05T20:09:57.545Z,100699.50
2023-04-05T20:14:58.891Z,100715.56
2023-04-05T20:20:01.392Z,100708.28
2023-04-05T20:25:38.923Z,100700.16
2023-04-05T20:30:40.353Z,100700.31
2023-04-05T20:40:43.074Z,100691.25
2023-04-05T20:45:44.445Z,100686.47
2023-04-05T20:50:46.169Z,100686.38
2023-04-05T20:55:50.427Z,100683.00
2023-04-05T21:00:52.332Z,100680.75
2023-04-05T21:05:53.859Z,100679.38
2023-04-05T21:10:55.557Z,100679.94
2023-04-05T21:15:57.895Z,100677.28
2023-04-05T21:21:00.293Z,100677.28
2023-04-05T21:26:02.204Z,100680.38
2023-04-05T21:31:03.665Z,100678.97
2023-04-05T21:36:05.153Z,100677.69
2023-04-05T21:41:06.622Z,100681.19
2023-04-05T21:46:08.134Z,100676.81
2023-04-05T21:51:09.486Z,100680.88
2023-04-05T21:56:10.918Z,100685.06
2023-04-05T22:01:13.430Z,100683.63
2023-04-05T22:06:14.788Z,100684.97
2023-04-05T22:11:16.153Z,100685.81
2023-04-05T22:16:17.649Z,100687.19
2023-04-05T22:21:19.017Z,100680.56
2023-04-05T22:26:20.760Z,100687.78
2023-04-05T22:31:22.196Z,100690.78
2023-04-05T22:36:23.706Z,100694.50
2023-04-05T22:41:25.031Z,100688.47
2023-04-05T22:46:27.521Z,100690.84
2023-04-05T22:51:28.924Z,100688.59
2023-04-05T22:56:31.474Z,100689.72
2023-04-05T23:01:32.846Z,100684.91
2023-04-05T23:06:34.195Z,100685.72
2023-04-05T23:11:35.597Z,100690.59
2023-04-05T23:16:36.955Z,100683.31
2023-04-05T23:21:38.302Z,100688.44
2023-04-05T23:26:39.650Z,100676.59
2023-04-05T23:31:42.068Z,100668.59
2023-04-05T23:36:43.506Z,100678.19
2023-04-05T23:41:44.863Z,100694.50
2023-04-05T23:46:46.698Z,100693.31
2023-04-05T23:51:48.145Z,100693.06
2023-04-05T23:56:49.589Z,100688.66
